Airfield :
LOGIN :

Register | Disclaimer

   EN    FR    IT 

 










Legend :    VFR   Marginal VFR   IFR   Intensive IFR   Very Intensive IFR
Visi :
Ceiling :
>= 8 km
>= 3000ft
5 to 8 km
1000 to 3000 ft
1500m to 5 km
500 to 1000 ft
800 to 1500m
200 to 500 ft
< 800m
< 200 ft
Symbols :   Thunderstorms  Fog  Heavy snow  Heavy precipitations  Wind > 20 kt
SIGMETs :     Misc.  Thunderstorms  Icing  Turbulence  Mountain Waves  Volcanic Ashes






- Airport Elevation : 19 ft
- IATA code : BEB


EGPL - Benbecula

CURRENT METAR :
  • 151220Z AUTO 24024G34KT 9999 FEW040/// 06/M00 Q0980

EXPIRED METARs :
  • 151150Z AUTO 24023KT 9999 BKN044/// 06/M01 Q0979
  • 151120Z AUTO 26027KT 9999 BKN044/// 06/00 Q0979
  • 151050Z AUTO 24025KT 9999 FEW041/// 06/M02 Q0979
  • 151020Z AUTO 25021KT 9999 FEW040/// SCT048/// 06/M01 Q0979
  • 150950Z AUTO 26023KT 9999 FEW043/// 05/M00 Q0978

TAF TAF EGPL
Valid from the 15 at 12:00 until the 15 at 18:00 UTC


151058Z 1512/1518 26015G25KT 9999 SCT020
PROB40
TEMPO 1512/1518 22014KT 6000 SHRA BKN012
TEMPO 1514/1518 22025G38KT
ATIS : +44 1870 604 818



MET'MAP, your aeronautical weather chart ! - Copyright ORBIFLY December 2007 - Disclaimer

ORBIFLY MET'MAP TEAM :

Programming & Development : Alexandra Zaïnal
Concept & original design : Baudouin d'Aumeries
Assistance for programming : Marc-Olivier Méhu
Technical & hardware support : Manuel Goepfert

Contact : metmap@orbifly.com




SOURCES & CREDITS :

   NOAA